sensor_id;sensor_type;location;lat;lon;timestamp;P1;durP1;ratioP1;P2;durP2;ratioP2
51692;SDS011;37777;53.066;21.638;2022-11-15T00:03:13;28.27;;;12.57;;
51692;SDS011;37777;53.066;21.638;2022-11-15T00:10:15;27.02;;;14.65;;
51692;SDS011;37777;53.066;21.638;2022-11-15T00:17:16;26.70;;;14.02;;
51692;SDS011;37777;53.066;21.638;2022-11-15T00:24:18;25.30;;;13.35;;
51692;SDS011;37777;53.066;21.638;2022-11-15T00:31:20;28.83;;;13.82;;
51692;SDS011;37777;53.066;21.638;2022-11-15T00:38:22;26.05;;;12.90;;
51692;SDS011;37777;53.066;21.638;2022-11-15T00:45:24;26.65;;;14.55;;
51692;SDS011;37777;53.066;21.638;2022-11-15T00:52:26;33.45;;;14.52;;
51692;SDS011;37777;53.066;21.638;2022-11-15T00:59:28;28.15;;;14.55;;
51692;SDS011;37777;53.066;21.638;2022-11-15T01:06:30;30.75;;;14.85;;
51692;SDS011;37777;53.066;21.638;2022-11-15T01:13:32;34.75;;;15.50;;
51692;SDS011;37777;53.066;21.638;2022-11-15T01:20:38;29.02;;;14.68;;
51692;SDS011;37777;53.066;21.638;2022-11-15T01:27:40;30.13;;;15.10;;
51692;SDS011;37777;53.066;21.638;2022-11-15T01:34:42;30.30;;;15.27;;
51692;SDS011;37777;53.066;21.638;2022-11-15T01:41:44;29.58;;;14.07;;
51692;SDS011;37777;53.066;21.638;2022-11-15T01:48:47;36.80;;;15.38;;
51692;SDS011;37777;53.066;21.638;2022-11-15T01:55:51;35.67;;;14.45;;
51692;SDS011;37777;53.066;21.638;2022-11-15T02:02:54;32.83;;;14.02;;
51692;SDS011;37777;53.066;21.638;2022-11-15T02:09:58;36.05;;;15.13;;
51692;SDS011;37777;53.066;21.638;2022-11-15T02:17:04;32.75;;;13.95;;
51692;SDS011;37777;53.066;21.638;2022-11-15T02:38:40;31.50;;;12.85;;
51692;SDS011;37777;53.066;21.638;2022-11-15T02:45:46;28.27;;;11.45;;
51692;SDS011;37777;53.066;21.638;2022-11-15T02:52:50;23.13;;;11.15;;
51692;SDS011;37777;53.066;21.638;2022-11-15T03:21:01;25.88;;;10.98;;
51692;SDS011;37777;53.066;21.638;2022-11-15T03:28:05;24.55;;;11.43;;
51692;SDS011;37777;53.066;21.638;2022-11-15T03:35:15;23.98;;;11.35;;
51692;SDS011;37777;53.066;21.638;2022-11-15T03:42:22;25.80;;;11.95;;
51692;SDS011;37777;53.066;21.638;2022-11-15T03:49:27;25.30;;;12.15;;
51692;SDS011;37777;53.066;21.638;2022-11-15T03:56:30;27.35;;;12.35;;
51692;SDS011;37777;53.066;21.638;2022-11-15T04:03:32;30.30;;;12.05;;
51692;SDS011;37777;53.066;21.638;2022-11-15T04:10:36;29.25;;;13.52;;
51692;SDS011;37777;53.066;21.638;2022-11-15T04:24:49;32.70;;;14.32;;
51692;SDS011;37777;53.066;21.638;2022-11-15T04:31:51;38.42;;;15.98;;
51692;SDS011;37777;53.066;21.638;2022-11-15T04:38:53;45.25;;;16.80;;
51692;SDS011;37777;53.066;21.638;2022-11-15T04:45:55;41.60;;;18.58;;
51692;SDS011;37777;53.066;21.638;2022-11-15T04:52:57;41.03;;;17.67;;
51692;SDS011;37777;53.066;21.638;2022-11-15T04:59:59;47.40;;;20.30;;
51692;SDS011;37777;53.066;21.638;2022-11-15T05:07:01;43.58;;;18.65;;
51692;SDS011;37777;53.066;21.638;2022-11-15T05:14:03;44.15;;;18.13;;
51692;SDS011;37777;53.066;21.638;2022-11-15T05:21:06;43.83;;;18.75;;
51692;SDS011;37777;53.066;21.638;2022-11-15T05:28:08;41.05;;;17.60;;
51692;SDS011;37777;53.066;21.638;2022-11-15T05:35:12;39.60;;;16.75;;
51692;SDS011;37777;53.066;21.638;2022-11-15T05:42:15;35.92;;;16.70;;
51692;SDS011;37777;53.066;21.638;2022-11-15T05:49:18;40.03;;;16.85;;
51692;SDS011;37777;53.066;21.638;2022-11-15T05:56:21;43.38;;;16.88;;
51692;SDS011;37777;53.066;21.638;2022-11-15T06:03:22;38.22;;;16.65;;
51692;SDS011;37777;53.066;21.638;2022-11-15T06:10:24;41.83;;;16.35;;
51692;SDS011;37777;53.066;21.638;2022-11-15T06:17:26;39.97;;;15.95;;
51692;SDS011;37777;53.066;21.638;2022-11-15T06:24:28;44.03;;;18.33;;
51692;SDS011;37777;53.066;21.638;2022-11-15T06:31:30;41.03;;;16.95;;
51692;SDS011;37777;53.066;21.638;2022-11-15T06:38:32;38.47;;;15.85;;
51692;SDS011;37777;53.066;21.638;2022-11-15T06:45:34;42.95;;;17.23;;
51692;SDS011;37777;53.066;21.638;2022-11-15T06:52:36;48.97;;;18.55;;
51692;SDS011;37777;53.066;21.638;2022-11-15T06:59:38;44.25;;;17.70;;
51692;SDS011;37777;53.066;21.638;2022-11-15T07:06:41;41.95;;;17.25;;
51692;SDS011;37777;53.066;21.638;2022-11-15T07:13:43;47.75;;;15.93;;
51692;SDS011;37777;53.066;21.638;2022-11-15T07:20:44;38.70;;;16.23;;
51692;SDS011;37777;53.066;21.638;2022-11-15T07:27:53;41.30;;;15.88;;
51692;SDS011;37777;53.066;21.638;2022-11-15T07:34:55;43.97;;;15.77;;
51692;SDS011;37777;53.066;21.638;2022-11-15T07:41:57;45.42;;;16.08;;
51692;SDS011;37777;53.066;21.638;2022-11-15T07:49:18;50.47;;;18.13;;
51692;SDS011;37777;53.066;21.638;2022-11-15T07:56:20;50.95;;;18.45;;
51692;SDS011;37777;53.066;21.638;2022-11-15T08:03:22;65.70;;;20.67;;
51692;SDS011;37777;53.066;21.638;2022-11-15T08:10:25;54.58;;;20.35;;
51692;SDS011;37777;53.066;21.638;2022-11-15T08:17:26;54.70;;;20.55;;
51692;SDS011;37777;53.066;21.638;2022-11-15T08:24:28;47.85;;;18.48;;
51692;SDS011;37777;53.066;21.638;2022-11-15T08:31:30;47.53;;;17.55;;
51692;SDS011;37777;53.066;21.638;2022-11-15T08:38:32;25.27;;;10.23;;
51692;SDS011;37777;53.066;21.638;2022-11-15T08:45:35;46.03;;;15.75;;
51692;SDS011;37777;53.066;21.638;2022-11-15T08:52:37;42.88;;;16.80;;
51692;SDS011;37777;53.066;21.638;2022-11-15T08:59:39;49.67;;;18.95;;
51692;SDS011;37777;53.066;21.638;2022-11-15T09:06:41;63.35;;;21.55;;
51692;SDS011;37777;53.066;21.638;2022-11-15T09:13:43;45.83;;;17.52;;
51692;SDS011;37777;53.066;21.638;2022-11-15T09:20:45;48.88;;;17.85;;
51692;SDS011;37777;53.066;21.638;2022-11-15T09:27:47;42.05;;;14.35;;
51692;SDS011;37777;53.066;21.638;2022-11-15T09:34:49;65.63;;;19.85;;
51692;SDS011;37777;53.066;21.638;2022-11-15T09:49:13;64.10;;;20.50;;
51692;SDS011;37777;53.066;21.638;2022-11-15T09:56:17;53.95;;;19.73;;
51692;SDS011;37777;53.066;21.638;2022-11-15T10:10:35;59.88;;;20.67;;
51692;SDS011;37777;53.066;21.638;2022-11-15T10:24:43;55.88;;;19.63;;
51692;SDS011;37777;53.066;21.638;2022-11-15T10:31:45;68.75;;;22.98;;
51692;SDS011;37777;53.066;21.638;2022-11-15T10:38:56;71.25;;;23.05;;
51692;SDS011;37777;53.066;21.638;2022-11-15T10:45:58;64.45;;;22.45;;
51692;SDS011;37777;53.066;21.638;2022-11-15T10:53:41;61.58;;;19.73;;
51692;SDS011;37777;53.066;21.638;2022-11-15T11:00:45;60.70;;;19.73;;
51692;SDS011;37777;53.066;21.638;2022-11-15T11:07:47;63.42;;;19.70;;
51692;SDS011;37777;53.066;21.638;2022-11-15T11:14:57;55.50;;;18.67;;
51692;SDS011;37777;53.066;21.638;2022-11-15T11:36:21;38.70;;;13.52;;
51692;SDS011;37777;53.066;21.638;2022-11-15T11:50:28;90.40;;;32.30;;
51692;SDS011;37777;53.066;21.638;2022-11-15T11:57:34;63.03;;;21.38;;
51692;SDS011;37777;53.066;21.638;2022-11-15T12:04:40;52.22;;;17.15;;
51692;SDS011;37777;53.066;21.638;2022-11-15T12:19:04;47.75;;;16.70;;
51692;SDS011;37777;53.066;21.638;2022-11-15T12:26:08;52.53;;;16.05;;
51692;SDS011;37777;53.066;21.638;2022-11-15T12:40:36;51.55;;;17.73;;
51692;SDS011;37777;53.066;21.638;2022-11-15T12:47:38;43.13;;;15.73;;
51692;SDS011;37777;53.066;21.638;2022-11-15T13:08:45;66.30;;;23.60;;
51692;SDS011;37777;53.066;21.638;2022-11-15T13:15:55;64.30;;;18.55;;
51692;SDS011;37777;53.066;21.638;2022-11-15T13:30:05;44.13;;;14.85;;
51692;SDS011;37777;53.066;21.638;2022-11-15T13:44:25;46.30;;;16.77;;
51692;SDS011;37777;53.066;21.638;2022-11-15T13:58:29;31.88;;;13.18;;
51692;SDS011;37777;53.066;21.638;2022-11-15T14:05:31;38.13;;;13.40;;
51692;SDS011;37777;53.066;21.638;2022-11-15T14:12:34;40.95;;;12.70;;
51692;SDS011;37777;53.066;21.638;2022-11-15T14:19:37;33.42;;;12.00;;
51692;SDS011;37777;53.066;21.638;2022-11-15T14:26:39;37.58;;;12.50;;
51692;SDS011;37777;53.066;21.638;2022-11-15T14:33:41;28.83;;;11.18;;
51692;SDS011;37777;53.066;21.638;2022-11-15T14:40:43;31.88;;;11.85;;
51692;SDS011;37777;53.066;21.638;2022-11-15T14:47:45;34.22;;;12.05;;
51692;SDS011;37777;53.066;21.638;2022-11-15T14:54:47;27.65;;;11.48;;
51692;SDS011;37777;53.066;21.638;2022-11-15T15:01:49;28.13;;;12.32;;
51692;SDS011;37777;53.066;21.638;2022-11-15T15:08:52;33.33;;;11.90;;
51692;SDS011;37777;53.066;21.638;2022-11-15T15:15:54;35.35;;;12.73;;
51692;SDS011;37777;53.066;21.638;2022-11-15T15:22:56;33.30;;;11.88;;
51692;SDS011;37777;53.066;21.638;2022-11-15T15:29:58;34.30;;;11.95;;
51692;SDS011;37777;53.066;21.638;2022-11-15T15:37:09;37.03;;;13.68;;
51692;SDS011;37777;53.066;21.638;2022-11-15T15:44:11;41.90;;;13.93;;
51692;SDS011;37777;53.066;21.638;2022-11-15T15:51:13;31.67;;;12.77;;
51692;SDS011;37777;53.066;21.638;2022-11-15T15:58:21;30.33;;;11.93;;
51692;SDS011;37777;53.066;21.638;2022-11-15T16:05:23;29.27;;;12.23;;
51692;SDS011;37777;53.066;21.638;2022-11-15T16:12:24;34.83;;;11.38;;
51692;SDS011;37777;53.066;21.638;2022-11-15T16:19:26;28.85;;;11.50;;
51692;SDS011;37777;53.066;21.638;2022-11-15T16:26:28;26.95;;;11.35;;
51692;SDS011;37777;53.066;21.638;2022-11-15T16:33:32;38.22;;;12.80;;
51692;SDS011;37777;53.066;21.638;2022-11-15T16:40:34;29.35;;;11.40;;
51692;SDS011;37777;53.066;21.638;2022-11-15T16:47:36;33.35;;;11.57;;
51692;SDS011;37777;53.066;21.638;2022-11-15T16:54:38;28.30;;;11.80;;
51692;SDS011;37777;53.066;21.638;2022-11-15T17:01:42;36.67;;;12.82;;
51692;SDS011;37777;53.066;21.638;2022-11-15T17:08:53;30.35;;;11.70;;
51692;SDS011;37777;53.066;21.638;2022-11-15T17:16:02;30.10;;;12.48;;
51692;SDS011;37777;53.066;21.638;2022-11-15T17:23:04;35.25;;;11.55;;
51692;SDS011;37777;53.066;21.638;2022-11-15T17:30:13;29.38;;;11.27;;
51692;SDS011;37777;53.066;21.638;2022-11-15T17:37:20;40.08;;;12.48;;
51692;SDS011;37777;53.066;21.638;2022-11-15T17:44:22;34.85;;;12.55;;
51692;SDS011;37777;53.066;21.638;2022-11-15T17:51:25;32.42;;;12.02;;
51692;SDS011;37777;53.066;21.638;2022-11-15T17:58:29;37.50;;;13.90;;
51692;SDS011;37777;53.066;21.638;2022-11-15T18:05:33;46.35;;;14.50;;
51692;SDS011;37777;53.066;21.638;2022-11-15T18:12:35;37.20;;;13.32;;
51692;SDS011;37777;53.066;21.638;2022-11-15T18:19:38;42.00;;;13.00;;
51692;SDS011;37777;53.066;21.638;2022-11-15T18:26:40;31.23;;;12.00;;
51692;SDS011;37777;53.066;21.638;2022-11-15T18:33:42;36.88;;;12.85;;
51692;SDS011;37777;53.066;21.638;2022-11-15T18:40:47;34.65;;;12.45;;
51692;SDS011;37777;53.066;21.638;2022-11-15T18:47:52;36.03;;;12.75;;
51692;SDS011;37777;53.066;21.638;2022-11-15T18:54:54;34.78;;;12.52;;
51692;SDS011;37777;53.066;21.638;2022-11-15T19:01:57;50.40;;;15.05;;
51692;SDS011;37777;53.066;21.638;2022-11-15T19:08:59;31.33;;;12.90;;
51692;SDS011;37777;53.066;21.638;2022-11-15T19:16:01;39.22;;;13.82;;
51692;SDS011;37777;53.066;21.638;2022-11-15T19:23:05;39.38;;;13.90;;
51692;SDS011;37777;53.066;21.638;2022-11-15T19:30:08;41.55;;;14.30;;
51692;SDS011;37777;53.066;21.638;2022-11-15T19:37:10;38.65;;;14.52;;
51692;SDS011;37777;53.066;21.638;2022-11-15T19:44:12;40.70;;;14.18;;
51692;SDS011;37777;53.066;21.638;2022-11-15T19:51:17;43.92;;;13.68;;
51692;SDS011;37777;53.066;21.638;2022-11-15T19:58:22;39.47;;;13.57;;
51692;SDS011;37777;53.066;21.638;2022-11-15T20:05:25;46.38;;;16.52;;
51692;SDS011;37777;53.066;21.638;2022-11-15T20:12:30;42.00;;;14.85;;
51692;SDS011;37777;53.066;21.638;2022-11-15T20:19:32;39.28;;;14.07;;
51692;SDS011;37777;53.066;21.638;2022-11-15T20:26:36;42.35;;;14.57;;
51692;SDS011;37777;53.066;21.638;2022-11-15T20:33:39;53.25;;;16.25;;
51692;SDS011;37777;53.066;21.638;2022-11-15T20:40:43;53.15;;;16.95;;
51692;SDS011;37777;53.066;21.638;2022-11-15T20:47:45;41.45;;;14.68;;
51692;SDS011;37777;53.066;21.638;2022-11-15T20:54:47;45.47;;;15.68;;
51692;SDS011;37777;53.066;21.638;2022-11-15T21:01:50;40.58;;;13.07;;
51692;SDS011;37777;53.066;21.638;2022-11-15T21:08:52;40.65;;;13.77;;
51692;SDS011;37777;53.066;21.638;2022-11-15T21:16:13;43.53;;;15.10;;
51692;SDS011;37777;53.066;21.638;2022-11-15T21:23:17;45.80;;;14.60;;
51692;SDS011;37777;53.066;21.638;2022-11-15T21:30:19;47.28;;;14.45;;
51692;SDS011;37777;53.066;21.638;2022-11-15T21:37:21;49.25;;;14.80;;
51692;SDS011;37777;53.066;21.638;2022-11-15T21:44:23;51.45;;;15.07;;
51692;SDS011;37777;53.066;21.638;2022-11-15T21:51:25;43.88;;;14.35;;
51692;SDS011;37777;53.066;21.638;2022-11-15T21:58:27;53.75;;;19.88;;
51692;SDS011;37777;53.066;21.638;2022-11-15T22:05:29;53.88;;;15.05;;
51692;SDS011;37777;53.066;21.638;2022-11-15T22:12:31;52.70;;;16.98;;
51692;SDS011;37777;53.066;21.638;2022-11-15T22:19:33;46.72;;;16.60;;
51692;SDS011;37777;53.066;21.638;2022-11-15T22:26:34;51.20;;;16.65;;
51692;SDS011;37777;53.066;21.638;2022-11-15T22:33:37;43.45;;;14.95;;
51692;SDS011;37777;53.066;21.638;2022-11-15T22:40:40;50.60;;;15.57;;
51692;SDS011;37777;53.066;21.638;2022-11-15T22:47:42;48.13;;;15.43;;
51692;SDS011;37777;53.066;21.638;2022-11-15T22:54:44;46.13;;;15.40;;
51692;SDS011;37777;53.066;21.638;2022-11-15T23:01:47;48.42;;;14.52;;
51692;SDS011;37777;53.066;21.638;2022-11-15T23:08:51;51.10;;;15.75;;
51692;SDS011;37777;53.066;21.638;2022-11-15T23:16:04;43.47;;;14.10;;
51692;SDS011;37777;53.066;21.638;2022-11-15T23:23:35;41.80;;;14.80;;
51692;SDS011;37777;53.066;21.638;2022-11-15T23:30:37;53.13;;;17.83;;
51692;SDS011;37777;53.066;21.638;2022-11-15T23:37:58;45.35;;;15.68;;
51692;SDS011;37777;53.066;21.638;2022-11-15T23:45:00;35.53;;;13.77;;
51692;SDS011;37777;53.066;21.638;2022-11-15T23:52:02;36.85;;;13.63;;
51692;SDS011;37777;53.066;21.638;2022-11-15T23:59:03;45.88;;;14.43;;
